Time;durP1;ratioP1;P1;durP2;ratioP2;P2;SDS_P1;SDS_P2;PMS_P1;PMS_P2;Temp;Humidity;BMP_temperature;BMP_pressure;BME280_temperature;BME280_humidity;BME280_pressure;Samples;Min_cycle;Max_cycle;Signal;HPM_P1;HPM_P2
2023/03/09 00:01:45;;;;;;;6.60;4.67;;;2.60;99.90;1.40;98196.00;;;;4973962;28;87783;-68
2023/03/09 00:04:15;;;;;;;6.33;4.17;;;1.60;99.90;1.40;98195.00;;;;4974604;28;88127;-68
2023/03/09 00:06:42;;;;;;;8.83;5.60;;;1.70;99.90;1.40;98211.00;;;;4974039;28;87929;-71
2023/03/09 00:09:08;;;;;;;5.20;3.87;;;1.60;99.90;1.40;98200.00;;;;4978492;28;87711;-69
2023/03/09 00:11:39;;;;;;;5.73;5.10;;;1.60;99.90;1.40;98202.00;;;;4962826;28;116222;-69
2023/03/09 00:14:05;;;;;;;9.00;5.43;;;1.60;99.90;1.40;98198.00;;;;4975503;28;87706;-69
2023/03/09 00:16:30;;;;;;;7.80;4.77;;;1.60;99.90;1.40;98198.00;;;;4991261;27;107301;-69
2023/03/09 00:18:57;;;;;;;6.80;5.37;;;1.70;99.90;1.40;98189.00;;;;4973472;28;117265;-68
2023/03/09 00:21:36;;;;;;;9.40;6.57;;;1.70;99.90;1.40;98196.00;;;;4971700;28;88917;-70
2023/03/09 00:24:26;;;;;;;8.33;5.50;;;1.60;99.90;1.40;98215.00;;;;4977289;28;87909;-70
2023/03/09 00:26:56;;;;;;;10.53;6.23;;;1.60;99.90;1.40;98206.00;;;;4973606;28;87815;-69
2023/03/09 00:29:24;;;;;;;9.00;6.43;;;2.70;99.90;1.40;98196.00;;;;4969978;28;88021;-69
2023/03/09 00:31:49;;;;;;;9.17;5.33;;;1.70;99.90;1.40;98193.00;;;;4978567;28;106989;-68
2023/03/09 00:34:16;;;;;;;7.63;4.30;;;1.60;99.90;1.40;98199.00;;;;4993637;27;88051;-67
2023/03/09 00:36:42;;;;;;;6.60;4.10;;;1.60;99.90;1.40;98202.00;;;;4974757;28;87064;-67
2023/03/09 00:39:09;;;;;;;9.60;5.40;;;1.80;99.90;1.40;98207.00;;;;4973038;28;87930;-67
2023/03/09 00:41:35;;;;;;;7.07;5.33;;;1.80;99.90;1.40;98197.00;;;;4980067;28;102355;-68
2023/03/09 00:44:03;;;;;;;6.47;4.93;;;1.70;99.90;1.40;98187.00;;;;4986905;27;110522;-69
2023/03/09 00:46:31;;;;;;;6.67;4.73;;;1.70;99.90;1.40;98178.00;;;;4970955;28;87881;-67
2023/03/09 00:48:57;;;;;;;9.70;5.50;;;1.70;99.90;1.40;98177.00;;;;4970701;28;87957;-68
2023/03/09 00:51:23;;;;;;;9.50;6.23;;;1.60;99.90;1.40;98179.00;;;;4980876;27;88094;-68
2023/03/09 00:53:49;;;;;;;8.67;5.23;;;1.80;99.90;1.40;98183.00;;;;4975637;28;90377;-68
2023/03/09 00:56:20;;;;;;;10.00;6.70;;;1.70;99.90;1.40;98157.00;;;;4973403;28;100791;-67
2023/03/09 00:58:47;;;;;;;8.43;5.70;;;1.80;99.90;1.40;98161.00;;;;4975671;28;87716;-66
2023/03/09 01:01:14;;;;;;;10.33;6.13;;;1.70;99.90;1.40;98138.00;;;;4973047;28;88356;-66
2023/03/09 01:03:40;;;;;;;8.57;5.80;;;1.60;99.90;1.40;98160.00;;;;4973067;28;102821;-67
2023/03/09 01:06:07;;;;;;;12.23;6.03;;;1.60;99.90;1.40;98153.00;;;;4974945;28;95946;-67
2023/03/09 01:08:34;;;;;;;8.90;5.67;;;1.70;99.90;1.40;98159.00;;;;4974669;28;95099;-69
2023/03/09 01:11:00;;;;;;;11.43;6.30;;;1.60;99.90;1.40;98157.00;;;;4971381;28;90856;-68
2023/03/09 01:13:26;;;;;;;10.43;6.67;;;1.80;99.90;1.40;98156.00;;;;4971675;28;99549;-68
2023/03/09 01:15:52;;;;;;;5.87;5.27;;;1.60;99.90;1.40;98159.00;;;;4975121;28;87881;-68
2023/03/09 01:18:18;;;;;;;9.10;5.93;;;1.70;99.90;1.40;98157.00;;;;4974581;28;106500;-69
2023/03/09 01:20:44;;;;;;;8.93;6.00;;;1.70;99.90;1.40;98143.00;;;;4975551;28;117164;-69
2023/03/09 01:23:09;;;;;;;5.60;3.43;;;1.70;99.90;1.40;98148.00;;;;4973592;27;109878;-69
2023/03/09 01:25:35;;;;;;;8.47;6.23;;;1.00;99.90;1.40;98148.00;;;;4975373;28;107222;-70
2023/03/09 01:28:01;;;;;;;7.50;5.07;;;1.70;99.90;1.50;98140.00;;;;4976055;28;88310;-69
2023/03/09 01:30:27;;;;;;;14.30;7.37;;;1.80;99.90;1.40;98138.00;;;;4973871;27;117778;-70
2023/03/09 01:32:53;;;;;;;9.47;5.67;;;1.60;99.90;1.50;98135.00;;;;4973939;27;88594;-70
2023/03/09 01:35:19;;;;;;;11.03;6.87;;;1.70;99.90;1.40;98131.00;;;;4976815;28;106972;-69
2023/03/09 01:37:45;;;;;;;9.20;6.77;;;1.70;99.90;1.40;98129.00;;;;4974857;28;95865;-69
2023/03/09 01:40:19;;;;;;;10.90;6.87;;;1.70;99.90;1.40;98140.00;;;;4973640;28;101063;-70
2023/03/09 01:43:29;;;;;;;10.43;6.47;;;1.70;99.90;1.40;98136.00;;;;4970727;28;87844;-71
2023/03/09 01:46:20;;;;;;;12.37;6.60;;;1.70;99.90;1.30;98141.00;;;;4975602;28;89095;-71
2023/03/09 01:48:48;;;;;;;8.93;7.27;;;2.20;99.90;1.40;98131.00;;;;4973229;28;88952;-71
2023/03/09 01:51:14;;;;;;;12.37;7.40;;;1.80;99.90;1.30;98129.00;;;;4975700;28;109925;-71
2023/03/09 01:53:40;;;;;;;9.43;6.53;;;1.60;99.90;1.30;98122.00;;;;4973282;28;98594;-73
2023/03/09 01:56:06;;;;;;;10.43;7.93;;;1.60;99.90;1.30;98112.00;;;;4972980;28;108753;-70
2023/03/09 01:58:33;;;;;;;9.57;7.43;;;1.50;99.90;1.30;98111.00;;;;4976155;28;117870;-71
2023/03/09 02:00:59;;;;;;;10.33;6.70;;;1.50;99.90;1.20;98100.00;;;;4973947;28;117478;-70
2023/03/09 02:03:34;;;;;;;13.13;8.27;;;1.60;99.90;1.20;98105.00;;;;4972054;28;109867;-72
2023/03/09 02:06:17;;;;;;;10.93;7.20;;;1.50;99.90;1.20;98101.00;;;;4989088;27;94863;-73
2023/03/09 02:09:09;;;;;;;8.63;5.77;;;1.50;99.90;1.20;98098.00;;;;4976245;28;88244;-72
2023/03/09 02:11:36;;;;;;;10.47;7.33;;;1.50;99.90;1.20;98093.00;;;;4966601;28;118210;-71
2023/03/09 02:14:03;;;;;;;11.17;7.33;;;2.20;99.90;1.20;98096.00;;;;4977663;28;110140;-71
2023/03/09 02:16:28;;;;;;;8.47;6.33;;;1.40;99.90;1.20;98096.00;;;;4973543;28;86994;-71
2023/03/09 02:18:54;;;;;;;10.13;6.40;;;1.50;99.90;1.20;98083.00;;;;4971997;28;117266;-70
2023/03/09 02:21:42;;;;;;;13.47;7.50;;;1.50;99.90;1.20;98085.00;;;;4973199;28;115853;-73
2023/03/09 02:24:32;;;;;;;9.03;5.30;;;1.50;99.90;1.20;98084.00;;;;4973593;28;88662;-71
2023/03/09 02:27:21;;;;;;;8.53;5.13;;;1.40;99.90;1.20;98080.00;;;;4985551;27;95140;-71
2023/03/09 02:29:47;;;;;;;11.80;6.87;;;1.50;99.90;1.20;98077.00;;;;4973569;28;88275;-70
2023/03/09 02:32:13;;;;;;;10.53;7.17;;;1.50;99.90;1.20;98080.00;;;;4983787;27;117988;-70
2023/03/09 02:34:39;;;;;;;12.60;6.70;;;1.50;99.90;1.20;98079.00;;;;4975069;28;87891;-69
2023/03/09 02:37:35;;;;;;;10.77;7.03;;;1.40;99.90;1.20;98076.00;;;;4973943;28;87775;-70
2023/03/09 02:40:24;;;;;;;9.87;6.83;;;1.50;99.90;1.20;98067.00;;;;4971607;28;88168;-71
2023/03/09 02:42:51;;;;;;;13.07;8.17;;;1.20;99.90;1.20;98063.00;;;;4975882;28;87306;-70
2023/03/09 02:45:21;;;;;;;13.97;7.77;;;1.50;99.90;1.20;98056.00;;;;4972308;28;110039;-69
2023/03/09 02:47:48;;;;;;;11.30;8.00;;;1.50;99.90;1.20;98050.00;;;;4970160;28;91095;-70
2023/03/09 02:50:15;;;;;;;7.53;5.73;;;1.50;99.90;1.20;98063.00;;;;4972290;28;90451;-70
2023/03/09 02:52:41;;;;;;;9.60;7.13;;;1.50;99.90;1.20;98051.00;;;;4972790;28;89315;-69
2023/03/09 02:55:07;;;;;;;16.63;7.37;;;1.40;99.90;1.10;98065.00;;;;4973825;28;87910;-70
2023/03/09 02:57:35;;;;;;;9.57;5.97;;;1.50;99.90;1.10;98054.00;;;;4971498;28;100576;-69
2023/03/09 03:00:01;;;;;;;10.23;6.40;;;1.30;99.90;1.10;98060.00;;;;4970300;28;89059;-67
2023/03/09 03:02:26;;;;;;;8.70;5.90;;;1.40;99.90;1.00;98052.00;;;;4972979;28;116119;-68
2023/03/09 03:04:52;;;;;;;9.20;6.30;;;1.40;99.90;1.00;98052.00;;;;4972751;28;109465;-67
2023/03/09 03:07:18;;;;;;;11.00;5.97;;;1.30;99.90;1.00;98053.00;;;;4976691;28;108004;-67
2023/03/09 03:09:43;;;;;;;12.73;7.83;;;1.30;99.90;1.00;98060.00;;;;4968916;28;117234;-65
2023/03/09 03:12:09;;;;;;;9.93;6.83;;;1.20;99.90;0.90;98050.00;;;;4970875;28;115352;-66
2023/03/09 03:14:36;;;;;;;8.50;5.53;;;1.20;99.90;1.00;98048.00;;;;4974511;28;110162;-67
2023/03/09 03:17:01;;;;;;;4.73;4.33;;;1.30;99.90;0.90;98047.00;;;;4972461;28;87814;-67
2023/03/09 03:19:27;;;;;;;9.37;5.53;;;1.20;99.90;0.90;98040.00;;;;4972273;28;117818;-67
2023/03/09 03:21:52;;;;;;;12.53;5.50;;;1.20;99.90;0.90;98032.00;;;;4970315;28;89738;-68
2023/03/09 03:24:18;;;;;;;10.03;5.70;;;1.20;99.90;0.90;98043.00;;;;4967373;28;110415;-68
2023/03/09 03:26:44;;;;;;;9.23;5.47;;;1.20;99.90;0.90;98045.00;;;;4971323;28;107084;-67
2023/03/09 03:29:10;;;;;;;9.27;5.70;;;0.50;99.90;0.90;98046.00;;;;4973108;28;88793;-68
2023/03/09 03:31:36;;;;;;;8.57;5.80;;;1.10;99.90;0.80;98056.00;;;;4975101;28;88794;-69
2023/03/09 03:34:02;;;;;;;7.70;5.30;;;1.10;99.90;0.80;98057.00;;;;4973118;28;109490;-69
2023/03/09 03:36:28;;;;;;;14.37;6.17;;;1.10;99.90;0.80;98049.00;;;;4971979;28;101447;-69
2023/03/09 03:38:54;;;;;;;8.20;6.27;;;1.10;99.90;0.80;98055.00;;;;4969325;28;118320;-68
2023/03/09 03:41:57;;;;;;;9.73;6.53;;;1.10;99.90;0.70;98044.00;;;;4972898;28;119148;-69
2023/03/09 03:44:23;;;;;;;15.77;8.57;;;1.10;99.90;0.80;98055.00;;;;4976099;28;97417;-69
2023/03/09 03:46:48;;;;;;;10.37;6.13;;;1.10;99.90;0.80;98036.00;;;;4974730;28;87815;-69
2023/03/09 03:49:14;;;;;;;14.30;7.13;;;1.10;99.90;0.80;98038.00;;;;4974615;28;117908;-69
2023/03/09 03:51:40;;;;;;;8.47;6.20;;;1.00;99.90;0.80;98030.00;;;;4974932;28;89030;-69
2023/03/09 03:54:06;;;;;;;8.63;5.80;;;1.10;99.90;0.80;98039.00;;;;4973717;28;110365;-68
2023/03/09 03:56:32;;;;;;;12.40;6.90;;;1.10;99.90;0.80;98040.00;;;;4975676;28;86893;-69
2023/03/09 03:58:58;;;;;;;8.07;6.37;;;1.00;99.90;0.80;98035.00;;;;4972786;28;88608;-68
2023/03/09 04:01:23;;;;;;;10.73;6.40;;;2.00;99.90;0.70;98025.00;;;;4977045;28;88771;-68
2023/03/09 04:03:49;;;;;;;12.07;7.50;;;1.10;99.90;0.80;98037.00;;;;4975165;28;109633;-69
2023/03/09 04:06:15;;;;;;;10.07;6.87;;;1.10;99.90;0.80;98025.00;;;;4974738;28;87784;-69
2023/03/09 04:08:40;;;;;;;10.77;5.83;;;1.10;99.90;0.70;98024.00;;;;4973877;28;117472;-68
2023/03/09 04:11:08;;;;;;;10.20;6.90;;;1.00;99.90;0.70;98025.00;;;;4977465;28;87761;-69
2023/03/09 04:13:34;;;;;;;14.13;6.27;;;1.00;99.90;0.80;98022.00;;;;4974664;28;100963;-67
2023/03/09 04:16:00;;;;;;;7.23;5.83;;;1.10;99.90;0.80;98015.00;;;;4972788;27;89613;-69
2023/03/09 04:18:25;;;;;;;10.00;6.63;;;1.00;99.90;0.80;98017.00;;;;4972865;27;118320;-68
2023/03/09 04:20:51;;;;;;;8.37;5.23;;;1.00;99.90;0.80;98015.00;;;;4973580;28;117913;-68
2023/03/09 04:23:17;;;;;;;10.10;5.80;;;1.00;99.90;0.70;98025.00;;;;4976815;28;110536;-68
2023/03/09 04:25:42;;;;;;;7.03;5.50;;;1.10;99.90;0.80;98025.00;;;;4979851;28;108691;-66
2023/03/09 04:28:08;;;;;;;6.27;4.93;;;1.10;99.90;0.70;98030.00;;;;4973528;28;119200;-66
2023/03/09 04:30:34;;;;;;;6.80;4.70;;;1.00;99.90;0.80;98010.00;;;;4974074;28;119322;-67
2023/03/09 04:32:59;;;;;;;9.87;5.57;;;1.10;99.90;0.80;98017.00;;;;4978377;28;90866;-68
2023/03/09 04:35:25;;;;;;;11.50;6.13;;;1.00;99.90;0.80;98023.00;;;;4976105;27;109143;-67
2023/03/09 04:38:00;;;;;;;7.50;4.33;;;1.10;99.90;0.80;98017.00;;;;4977697;28;116666;-67
2023/03/09 04:40:26;;;;;;;7.67;4.83;;;1.00;99.90;0.80;98010.00;;;;4975602;28;87893;-67
2023/03/09 04:42:51;;;;;;;9.10;5.60;;;1.10;99.90;0.80;98025.00;;;;4973321;28;108391;-68
2023/03/09 04:45:17;;;;;;;7.63;5.60;;;1.10;99.90;0.80;98016.00;;;;4973561;28;86989;-67
2023/03/09 04:47:43;;;;;;;8.23;4.70;;;1.10;99.90;0.80;98033.00;;;;4976013;28;116891;-68
2023/03/09 04:50:14;;;;;;;11.97;5.60;;;1.10;99.90;0.80;98036.00;;;;4975776;28;101456;-67
2023/03/09 04:52:40;;;;;;;6.20;4.80;;;1.10;99.90;0.80;98031.00;;;;4975688;28;101889;-67
2023/03/09 04:55:06;;;;;;;9.83;6.20;;;1.10;99.90;0.80;98029.00;;;;4974196;28;108802;-68
2023/03/09 04:57:32;;;;;;;7.23;4.67;;;1.10;99.90;0.80;98030.00;;;;4975552;28;88836;-66
2023/03/09 04:59:57;;;;;;;8.37;5.97;;;1.20;99.90;0.80;98032.00;;;;4976914;27;117401;-68
2023/03/09 05:02:24;;;;;;;8.57;6.50;;;0.80;99.90;0.80;98028.00;;;;4983928;28;109662;-68
2023/03/09 05:04:49;;;;;;;6.97;5.07;;;1.10;99.90;0.80;98038.00;;;;4983705;28;87826;-66
2023/03/09 05:07:15;;;;;;;10.57;6.27;;;1.10;99.90;0.80;98032.00;;;;4975850;28;118060;-68
2023/03/09 05:09:41;;;;;;;7.50;4.67;;;2.10;99.90;0.80;98022.00;;;;4974816;28;116233;-68
2023/03/09 05:12:06;;;;;;;7.97;6.10;;;1.10;99.90;0.80;98027.00;;;;4974536;28;109940;-67
2023/03/09 05:14:32;;;;;;;10.27;5.90;;;1.10;99.90;0.80;98023.00;;;;4976567;28;88725;-67
2023/03/09 05:16:58;;;;;;;6.47;4.73;;;1.00;99.90;0.80;98028.00;;;;4974108;28;117647;-67
2023/03/09 05:19:23;;;;;;;12.50;5.83;;;1.10;99.90;0.80;98031.00;;;;4972860;28;89452;-67
2023/03/09 05:21:49;;;;;;;9.20;5.53;;;1.10;99.90;0.80;98018.00;;;;4974280;28;105678;-67
2023/03/09 05:24:15;;;;;;;7.43;4.50;;;1.10;99.90;0.80;98027.00;;;;4976620;28;89061;-67
2023/03/09 05:26:40;;;;;;;5.90;4.17;;;1.10;99.90;0.80;98025.00;;;;4971132;28;118549;-68
2023/03/09 05:29:06;;;;;;;10.30;4.37;;;1.00;99.90;0.80;98030.00;;;;4974349;28;116643;-68
2023/03/09 05:31:32;;;;;;;6.57;5.03;;;1.00;99.90;0.80;98018.00;;;;4955191;28;109294;-67
2023/03/09 05:33:57;;;;;;;7.20;5.27;;;1.10;99.90;0.90;98014.00;;;;4969137;28;107355;-68
2023/03/09 05:36:25;;;;;;;7.93;4.93;;;2.20;99.90;0.90;98015.00;;;;4971565;28;106119;-67
2023/03/09 05:38:52;;;;;;;11.07;5.63;;;1.20;99.90;0.90;98014.00;;;;4975159;28;87894;-67
2023/03/09 05:41:19;;;;;;;7.07;5.10;;;1.10;99.90;0.90;98011.00;;;;4972628;28;89257;-67
2023/03/09 05:43:45;;;;;;;10.60;5.90;;;1.10;99.90;0.80;98013.00;;;;4974391;28;108918;-68
2023/03/09 05:46:14;;;;;;;5.70;4.43;;;1.20;99.90;0.90;98008.00;;;;4972617;28;118779;-68
2023/03/09 05:48:41;;;;;;;6.13;4.97;;;1.20;99.90;0.90;98006.00;;;;4967531;28;101502;-67
2023/03/09 05:51:08;;;;;;;11.53;5.93;;;1.20;99.90;0.90;98005.00;;;;4971708;28;88025;-66
2023/03/09 05:53:34;;;;;;;4.87;4.37;;;1.10;99.90;0.90;98011.00;;;;4972553;28;87931;-67
2023/03/09 05:56:01;;;;;;;10.03;5.63;;;1.20;99.90;0.90;98006.00;;;;4971032;28;108082;-69
2023/03/09 05:58:27;;;;;;;6.40;4.03;;;1.90;99.90;0.90;98007.00;;;;4985069;27;109114;-68
2023/03/09 06:00:59;;;;;;;9.27;6.27;;;1.20;99.90;0.90;98013.00;;;;4974675;28;87810;-68
2023/03/09 06:03:25;;;;;;;7.90;4.13;;;1.20;99.90;1.00;98013.00;;;;4969781;28;91002;-69
2023/03/09 06:06:04;;;;;;;10.33;6.10;;;1.20;99.90;0.90;98030.00;;;;4971871;28;118992;-68
2023/03/09 06:08:30;;;;;;;10.40;6.13;;;1.30;99.90;0.90;98016.00;;;;4971394;28;89326;-69
2023/03/09 06:10:59;;;;;;;9.60;5.87;;;1.20;99.90;0.90;98028.00;;;;4972902;28;87698;-69
2023/03/09 06:13:25;;;;;;;10.97;6.10;;;1.20;99.90;0.90;98031.00;;;;4975854;28;98416;-69
2023/03/09 06:15:51;;;;;;;10.53;6.27;;;1.20;99.90;1.00;98037.00;;;;4974398;28;110759;-68
2023/03/09 06:18:17;;;;;;;13.23;7.27;;;1.30;99.90;0.90;98037.00;;;;4972641;28;117453;-68
2023/03/09 06:20:44;;;;;;;12.33;6.77;;;1.30;99.90;1.00;98038.00;;;;4976764;28;87755;-69
2023/03/09 06:23:10;;;;;;;7.80;5.03;;;2.10;99.90;1.00;98046.00;;;;4973319;28;86967;-67
2023/03/09 06:25:45;;;;;;;8.20;5.83;;;1.20;99.90;1.00;98058.00;;;;4982954;28;101638;-69
2023/03/09 06:28:10;;;;;;;8.43;5.67;;;1.60;99.90;1.00;98062.00;;;;4976033;28;87991;-69
2023/03/09 06:30:39;;;;;;;5.70;5.13;;;1.20;99.90;1.00;98069.00;;;;4976795;28;110390;-68
2023/03/09 06:33:05;;;;;;;6.97;4.80;;;1.30;99.90;1.00;98085.00;;;;4988333;27;87856;-66
2023/03/09 06:35:31;;;;;;;9.60;5.37;;;1.30;99.90;1.10;98086.00;;;;4975046;28;88243;-67
2023/03/09 06:38:00;;;;;;;9.63;5.97;;;1.30;99.90;1.10;98081.00;;;;4983002;28;116392;-67
2023/03/09 06:40:25;;;;;;;10.50;6.07;;;1.40;99.90;1.10;98093.00;;;;4978969;28;87631;-68
2023/03/09 06:42:51;;;;;;;6.43;5.43;;;1.30;99.90;1.10;98097.00;;;;4971635;28;109815;-67
2023/03/09 06:45:17;;;;;;;10.67;5.67;;;1.40;99.90;1.20;98110.00;;;;4974354;28;117903;-67
2023/03/09 06:47:43;;;;;;;10.17;6.60;;;1.40;99.90;1.20;98113.00;;;;4978408;28;87867;-67
2023/03/09 06:50:09;;;;;;;8.43;6.10;;;1.40;99.90;1.20;98134.00;;;;4974073;28;108144;-68
2023/03/09 06:52:35;;;;;;;11.37;6.10;;;1.50;99.90;1.20;98158.00;;;;4972541;28;88042;-67
2023/03/09 06:55:00;;;;;;;7.60;5.33;;;1.60;99.90;1.30;98158.00;;;;4973323;28;97318;-67
2023/03/09 06:57:26;;;;;;;7.47;5.07;;;0.80;99.90;1.30;98168.00;;;;4974079;28;117772;-67
2023/03/09 06:59:52;;;;;;;4.83;3.83;;;1.60;99.90;1.30;98168.00;;;;4974552;28;109940;-68
2023/03/09 07:02:17;;;;;;;7.00;5.33;;;1.60;99.90;1.30;98177.00;;;;4970626;28;87765;-68
2023/03/09 07:04:43;;;;;;;9.97;5.50;;;1.50;99.90;1.30;98183.00;;;;4977414;28;87992;-69
2023/03/09 07:07:09;;;;;;;9.03;4.87;;;1.60;99.90;1.30;98181.00;;;;4974600;28;115722;-69
2023/03/09 07:09:35;;;;;;;13.30;7.17;;;1.70;99.90;1.30;98182.00;;;;4976025;27;88886;-68
2023/03/09 07:12:00;;;;;;;8.63;5.13;;;1.60;99.90;1.30;98199.00;;;;4976779;28;109180;-69
2023/03/09 07:14:27;;;;;;;7.57;5.20;;;1.70;99.90;1.40;98210.00;;;;4974828;28;118483;-67
2023/03/09 07:16:54;;;;;;;5.43;4.90;;;1.70;99.90;1.40;98211.00;;;;4973087;27;104871;-68
2023/03/09 07:19:21;;;;;;;6.37;4.40;;;1.70;99.90;1.40;98219.00;;;;4976146;28;88764;-68
2023/03/09 07:21:46;;;;;;;7.87;4.17;;;1.70;99.90;1.40;98218.00;;;;4980702;28;87857;-67
2023/03/09 07:24:13;;;;;;;9.17;4.20;;;2.60;99.90;1.50;98230.00;;;;4978048;28;108501;-67
2023/03/09 07:26:39;;;;;;;5.97;3.97;;;1.80;99.90;1.50;98235.00;;;;4974113;28;102405;-67
2023/03/09 07:29:04;;;;;;;9.43;4.33;;;1.70;99.90;1.50;98240.00;;;;4971946;28;111530;-67
2023/03/09 07:31:30;;;;;;;5.37;3.93;;;1.80;99.90;1.50;98248.00;;;;4974771;28;108167;-67
2023/03/09 07:33:57;;;;;;;8.77;3.83;;;1.80;99.90;1.50;98233.00;;;;4978954;28;110341;-68
2023/03/09 07:36:23;;;;;;;5.70;3.77;;;1.70;99.90;1.60;98248.00;;;;4975670;28;88370;-68
2023/03/09 07:38:49;;;;;;;4.40;3.37;;;1.80;99.90;1.60;98275.00;;;;4974255;28;87774;-69
2023/03/09 07:41:15;;;;;;;4.77;4.17;;;1.80;99.90;1.60;98267.00;;;;4976846;28;88131;-69
2023/03/09 07:43:43;;;;;;;3.00;2.60;;;2.10;99.90;1.60;98281.00;;;;4990307;27;121122;-68
2023/03/09 07:46:12;;;;;;;4.07;2.63;;;1.80;99.90;1.60;98282.00;;;;4976632;28;89314;-68
2023/03/09 07:48:38;;;;;;;4.60;3.27;;;1.90;99.90;1.60;98299.00;;;;4977772;28;88577;-68
2023/03/09 07:51:05;;;;;;;4.87;3.10;;;2.00;99.90;1.60;98297.00;;;;4979783;28;87752;-68
2023/03/09 07:53:33;;;;;;;7.30;3.53;;;2.00;99.90;1.70;98309.00;;;;4976817;28;88098;-68
2023/03/09 07:56:03;;;;;;;5.63;3.73;;;2.00;99.90;1.70;98320.00;;;;4974123;28;88798;-70
2023/03/09 07:58:34;;;;;;;7.13;4.13;;;2.00;99.90;1.70;98327.00;;;;4976678;28;87842;-68
2023/03/09 08:01:01;;;;;;;5.47;3.33;;;2.10;99.90;1.80;98325.00;;;;4975022;28;88085;-69
2023/03/09 08:03:27;;;;;;;5.70;2.77;;;2.00;99.90;1.90;98337.00;;;;4978231;28;97021;-68
2023/03/09 08:05:55;;;;;;;10.27;3.60;;;2.10;99.90;1.90;98351.00;;;;4979289;28;88004;-69
2023/03/09 08:08:27;;;;;;;6.23;3.80;;;2.10;99.90;2.00;98356.00;;;;4975402;28;88859;-69
2023/03/09 08:10:54;;;;;;;4.83;3.77;;;2.20;99.90;2.00;98362.00;;;;4973115;28;96792;-70
2023/03/09 08:13:21;;;;;;;4.60;2.93;;;2.20;99.90;2.00;98361.00;;;;4977266;28;95091;-70
2023/03/09 08:15:48;;;;;;;4.10;2.53;;;2.40;99.90;2.10;98370.00;;;;4976517;28;87941;-70
2023/03/09 08:18:14;;;;;;;4.40;2.83;;;3.00;99.90;2.10;98373.00;;;;4977536;28;87665;-71
2023/03/09 08:20:40;;;;;;;3.90;3.50;;;2.30;99.90;2.10;98374.00;;;;4976678;28;92484;-69
2023/03/09 08:23:06;;;;;;;4.50;3.40;;;2.30;99.90;2.10;98375.00;;;;4972763;28;104035;-69
2023/03/09 08:25:32;;;;;;;4.90;2.77;;;2.60;99.90;2.20;98377.00;;;;4975251;28;88776;-69
2023/03/09 08:27:58;;;;;;;3.57;2.50;;;2.40;99.90;2.30;98401.00;;;;4975258;28;87862;-68
2023/03/09 08:30:24;;;;;;;2.57;2.33;;;2.50;99.90;2.30;98421.00;;;;4976948;27;88040;-70
2023/03/09 08:32:52;;;;;;;3.23;2.10;;;2.50;99.90;2.30;98430.00;;;;4974350;28;94205;-69
2023/03/09 08:35:21;;;;;;;3.47;2.57;;;2.50;99.90;2.40;98439.00;;;;4978555;28;89850;-70
2023/03/09 08:37:47;;;;;;;3.77;2.27;;;3.20;99.90;2.40;98460.00;;;;4975057;28;87697;-69
2023/03/09 08:40:15;;;;;;;2.30;2.10;;;2.60;99.90;2.40;98465.00;;;;4976209;28;87754;-68
2023/03/09 08:42:41;;;;;;;3.53;2.37;;;2.60;99.90;2.40;98466.00;;;;4990933;27;87953;-67
2023/03/09 08:45:08;;;;;;;3.67;2.13;;;2.70;99.90;2.40;98467.00;;;;4975617;28;87788;-69
2023/03/09 08:47:34;;;;;;;5.80;2.63;;;2.70;99.90;2.40;98486.00;;;;4971745;28;93028;-70
2023/03/09 08:50:00;;;;;;;3.23;2.03;;;2.70;99.90;2.50;98485.00;;;;4975084;28;86975;-69
2023/03/09 08:52:26;;;;;;;4.53;2.33;;;2.70;99.90;2.50;98479.00;;;;4980200;28;88473;-68
2023/03/09 08:54:52;;;;;;;2.57;2.37;;;2.30;99.90;2.50;98475.00;;;;4974798;28;100796;-68
2023/03/09 08:57:18;;;;;;;2.67;2.47;;;2.70;99.90;2.60;98489.00;;;;4977788;28;89091;-68
2023/03/09 08:59:46;;;;;;;3.03;1.90;;;2.80;99.90;2.60;98499.00;;;;4974523;28;88088;-68
2023/03/09 09:02:14;;;;;;;3.33;2.23;;;2.80;99.90;2.60;98501.00;;;;4974186;28;87893;-68
2023/03/09 09:04:43;;;;;;;5.03;2.43;;;2.90;99.90;2.70;98509.00;;;;4976547;28;88639;-68
2023/03/09 09:07:11;;;;;;;3.20;2.57;;;2.90;99.90;2.70;98517.00;;;;4972897;28;88090;-68
2023/03/09 09:09:37;;;;;;;2.73;2.23;;;2.90;99.90;2.70;98513.00;;;;4977216;28;100599;-68
2023/03/09 09:12:03;;;;;;;2.30;2.10;;;2.90;99.90;2.70;98518.00;;;;4976017;28;107243;-68
2023/03/09 09:14:29;;;;;;;3.63;2.53;;;2.90;99.90;2.80;98513.00;;;;4974586;28;110499;-68
2023/03/09 09:16:55;;;;;;;5.50;2.63;;;3.00;99.90;2.90;98506.00;;;;4972961;28;110318;-68
2023/03/09 09:19:22;;;;;;;4.50;1.77;;;2.40;99.90;3.00;98510.00;;;;4970842;28;87921;-66
2023/03/09 09:21:48;;;;;;;2.70;2.30;;;3.20;99.90;3.00;98521.00;;;;4973764;28;88993;-67
2023/03/09 09:24:14;;;;;;;3.50;1.93;;;2.60;99.90;3.10;98522.00;;;;4977156;28;88773;-67
2023/03/09 09:26:41;;;;;;;3.13;2.53;;;3.30;99.90;3.20;98535.00;;;;4975290;28;101471;-67
2023/03/09 09:29:07;;;;;;;3.23;2.73;;;3.30;99.90;3.20;98539.00;;;;4977597;28;87892;-67
2023/03/09 09:31:33;;;;;;;5.03;2.77;;;3.30;99.90;3.20;98548.00;;;;4977364;27;118696;-66
2023/03/09 09:33:59;;;;;;;4.30;2.70;;;3.40;99.90;3.30;98547.00;;;;4978003;28;88692;-68
2023/03/09 09:36:24;;;;;;;6.13;3.37;;;3.50;99.90;3.30;98549.00;;;;4977409;28;87824;-68
2023/03/09 09:38:53;;;;;;;4.53;4.10;;;3.50;99.90;3.40;98564.00;;;;4975849;28;107801;-68
2023/03/09 09:41:46;;;;;;;4.53;3.17;;;3.70;99.90;3.40;98576.00;;;;4975385;28;88742;-68
2023/03/09 09:44:33;;;;;;;4.30;2.80;;;3.60;99.90;3.40;98591.00;;;;4989710;27;87968;-68
2023/03/09 09:47:03;;;;;;;6.47;3.13;;;4.40;99.90;3.40;98598.00;;;;4975411;28;88938;-68
2023/03/09 09:49:43;;;;;;;6.27;2.83;;;4.30;99.90;3.40;98605.00;;;;4973598;28;87772;-67
2023/03/09 09:52:37;;;;;;;3.57;2.37;;;3.70;99.90;3.40;98618.00;;;;4973450;28;90390;-67
2023/03/09 09:55:13;;;;;;;3.10;2.47;;;3.60;99.90;3.40;98614.00;;;;4975527;28;89249;-67
2023/03/09 09:57:49;;;;;;;4.00;3.10;;;3.60;99.90;3.40;98611.00;;;;4986824;28;87624;-67
2023/03/09 10:00:37;;;;;;;4.03;2.73;;;3.70;99.90;3.50;98630.00;;;;4991067;27;87890;-67
2023/03/09 10:03:08;;;;;;;6.50;2.93;;;3.70;99.90;3.60;98624.00;;;;4975909;28;89987;-67
2023/03/09 10:05:42;;;;;;;5.07;3.03;;;3.80;99.90;3.60;98638.00;;;;4990887;27;89842;-67
2023/03/09 10:08:57;;;;;;;2.97;2.63;;;4.40;99.90;3.60;98640.00;;;;4991069;27;103432;-67
2023/03/09 10:11:41;;;;;;;3.03;2.47;;;3.80;99.90;3.70;98639.00;;;;4976082;28;88298;-67
2023/03/09 10:14:34;;;;;;;3.90;3.03;;;3.90;99.90;3.70;98638.00;;;;4989198;27;89087;-67
2023/03/09 10:17:39;;;;;;;5.20;3.77;;;4.00;99.90;3.80;98646.00;;;;4989315;27;105550;-68
2023/03/09 10:20:40;;;;;;;3.97;2.70;;;4.30;99.90;3.90;98638.00;;;;4975910;28;98973;-67
2023/03/09 10:23:24;;;;;;;3.33;2.47;;;4.00;99.90;3.90;98650.00;;;;4945153;28;100456;-67
2023/03/09 10:26:15;;;;;;;5.40;3.73;;;4.10;99.90;4.00;98653.00;;;;4992316;27;88250;-67
2023/03/09 10:28:44;;;;;;;7.00;2.97;;;4.10;99.90;4.10;98667.00;;;;4941919;28;88130;-67
2023/03/09 10:31:25;;;;;;;3.80;2.47;;;5.20;99.90;4.10;98664.00;;;;4970516;28;100449;-67
2023/03/09 10:34:10;;;;;;;4.00;3.33;;;4.30;99.90;4.20;98671.00;;;;4973165;28;94100;-67
2023/03/09 10:36:48;;;;;;;3.67;3.03;;;4.30;99.90;4.20;98670.00;;;;4955807;28;90569;-66
2023/03/09 10:39:16;;;;;;;6.03;3.17;;;4.40;99.90;4.30;98677.00;;;;4986792;27;87999;-67
2023/03/09 10:41:42;;;;;;;2.87;2.53;;;5.30;99.90;4.30;98668.00;;;;4974936;28;88732;-67
2023/03/09 10:44:14;;;;;;;6.43;3.13;;;4.90;99.90;4.30;98678.00;;;;4973057;28;87866;-69
2023/03/09 10:46:55;;;;;;;8.20;3.60;;;4.40;99.90;4.30;98687.00;;;;4974634;28;88131;-67
2023/03/09 10:49:21;;;;;;;4.13;2.80;;;4.50;99.90;4.30;98688.00;;;;4969656;28;89517;-67
2023/03/09 10:52:06;;;;;;;4.73;2.90;;;4.40;99.90;4.20;98694.00;;;;4971118;28;87764;-67
2023/03/09 10:54:41;;;;;;;3.27;2.50;;;4.50;99.90;4.30;98687.00;;;;4974515;28;87815;-68
2023/03/09 10:57:31;;;;;;;4.57;3.53;;;4.80;99.90;4.20;98676.00;;;;4972585;28;101384;-67
2023/03/09 11:00:17;;;;;;;4.73;3.00;;;4.40;99.90;4.20;98683.00;;;;4978024;28;87902;-67
2023/03/09 11:02:53;;;;;;;4.73;3.17;;;4.40;99.90;4.20;98665.00;;;;4972584;28;103817;-67
2023/03/09 11:05:21;;;;;;;4.20;2.80;;;4.90;99.90;4.30;98677.00;;;;4968470;28;88102;-67
2023/03/09 11:07:59;;;;;;;3.57;2.83;;;4.50;99.90;4.30;98683.00;;;;4969683;28;108303;-67
2023/03/09 11:10:34;;;;;;;5.17;2.53;;;4.50;99.90;4.30;98695.00;;;;4986316;27;88113;-67
2023/03/09 11:13:02;;;;;;;3.67;2.67;;;4.40;99.90;4.30;98703.00;;;;4972703;28;87830;-67
2023/03/09 11:15:37;;;;;;;5.30;3.57;;;4.50;99.90;4.30;98713.00;;;;4971942;28;88020;-67